createdAt,value
2022-09-27T00:02:09.360Z,0.70
2022-09-27T00:04:38.019Z,0.90
2022-09-27T00:07:07.166Z,2.70
2022-09-27T00:09:36.083Z,2.00
2022-09-27T00:12:04.851Z,1.10
2022-09-27T00:14:33.532Z,0.40
2022-09-27T00:17:03.381Z,0.93
2022-09-27T00:19:31.816Z,0.90
2022-09-27T00:22:01.434Z,0.50
2022-09-27T00:24:29.824Z,1.00
2022-09-27T00:26:58.412Z,0.90
2022-09-27T00:29:26.828Z,0.43
2022-09-27T00:31:55.530Z,0.57
2022-09-27T00:34:27.237Z,0.97
2022-09-27T00:36:55.737Z,0.43
2022-09-27T00:39:24.159Z,1.77
2022-09-27T00:41:52.596Z,0.90
2022-09-27T00:45:02.243Z,0.53
2022-09-27T00:47:37.454Z,0.90
2022-09-27T00:50:15.312Z,0.40
2022-09-27T00:52:50.182Z,0.60
2022-09-27T00:55:23.515Z,0.77
2022-09-27T00:57:52.283Z,0.70
2022-09-27T01:00:22.613Z,0.60
2022-09-27T01:02:54.161Z,0.73
2022-09-27T01:05:29.262Z,0.50
2022-09-27T01:08:00.609Z,0.80
2022-09-27T01:10:33.809Z,0.50
2022-09-27T01:13:11.585Z,2.20
2022-09-27T01:15:48.330Z,1.60
2022-09-27T01:18:31.475Z,0.93
2022-09-27T01:21:35.281Z,0.60
2022-09-27T01:24:21.972Z,0.40
2022-09-27T01:27:22.552Z,0.73
2022-09-27T01:30:12.160Z,0.83
2022-09-27T01:32:52.364Z,0.60
2022-09-27T01:35:29.494Z,0.70
2022-09-27T01:38:08.766Z,0.90
2022-09-27T01:40:44.076Z,0.50
2022-09-27T01:43:37.594Z,0.67
2022-09-27T01:46:11.770Z,0.83
2022-09-27T01:49:03.904Z,0.67
2022-09-27T01:51:39.474Z,0.70
2022-09-27T01:54:10.600Z,0.50
2022-09-27T01:57:02.386Z,0.60
2022-09-27T01:59:41.694Z,1.60
2022-09-27T02:02:36.274Z,1.50
2022-09-27T02:05:34.445Z,1.07
2022-09-27T02:08:18.682Z,0.80
2022-09-27T02:10:53.044Z,0.43
2022-09-27T02:13:25.872Z,0.93
2022-09-27T02:16:07.813Z,0.60
2022-09-27T02:18:51.040Z,0.50
2022-09-27T02:21:22.264Z,0.80
2022-09-27T02:23:57.863Z,0.70
2022-09-27T02:26:32.560Z,0.60
2022-09-27T02:29:06.889Z,1.07
2022-09-27T02:31:44.017Z,0.70
2022-09-27T02:34:18.237Z,0.87
2022-09-27T02:36:46.699Z,0.80
2022-09-27T02:39:15.625Z,0.80
2022-09-27T02:41:44.438Z,0.60
2022-09-27T02:44:15.941Z,0.83
2022-09-27T02:47:03.740Z,0.90
2022-09-27T02:49:45.676Z,0.97
2022-09-27T02:52:35.218Z,1.17
2022-09-27T02:55:14.005Z,0.90
2022-09-27T02:58:15.790Z,0.70
2022-09-27T03:01:08.955Z,0.93
2022-09-27T03:04:15.141Z,0.80
2022-09-27T03:06:47.943Z,1.33
2022-09-27T03:09:20.514Z,1.10
2022-09-27T03:11:49.147Z,1.00
2022-09-27T03:14:18.102Z,1.00
2022-09-27T03:16:58.195Z,0.97
2022-09-27T03:19:52.617Z,1.03
2022-09-27T03:22:41.176Z,1.10
2022-09-27T03:25:11.094Z,1.17
2022-09-27T03:27:39.679Z,1.17
2022-09-27T03:30:09.109Z,1.00
2022-09-27T03:32:43.317Z,1.30
2022-09-27T03:35:32.663Z,1.60
2022-09-27T03:38:02.952Z,1.30
2022-09-27T03:40:31.857Z,0.97
2022-09-27T03:43:00.371Z,1.00
2022-09-27T03:45:29.025Z,0.80
2022-09-27T03:47:59.072Z,1.00
2022-09-27T03:50:27.916Z,0.97
2022-09-27T03:52:56.321Z,0.90
2022-09-27T03:55:27.506Z,1.43
2022-09-27T03:57:55.871Z,1.30
2022-09-27T04:00:24.674Z,1.03
2022-09-27T04:02:53.284Z,1.00
2022-09-27T04:05:25.177Z,1.67
2022-09-27T04:08:11.054Z,1.47
2022-09-27T04:10:43.033Z,1.20
2022-09-27T04:13:11.644Z,0.87
2022-09-27T04:15:52.019Z,1.20
2022-09-27T04:18:47.503Z,1.63
2022-09-27T04:21:45.176Z,0.87
2022-09-27T04:24:15.053Z,0.90
2022-09-27T04:26:55.354Z,0.90
2022-09-27T04:29:27.201Z,1.20
2022-09-27T04:31:56.657Z,1.53
2022-09-27T04:34:50.914Z,1.10
2022-09-27T04:37:24.458Z,1.00
2022-09-27T04:40:05.232Z,1.33
2022-09-27T04:42:35.338Z,1.20
2022-09-27T04:45:03.820Z,0.80
2022-09-27T04:47:33.658Z,1.30
2022-09-27T04:50:02.152Z,0.83
2022-09-27T04:52:31.733Z,1.50
2022-09-27T04:55:00.162Z,0.97
2022-09-27T04:57:31.267Z,1.50
2022-09-27T05:00:01.198Z,1.10
2022-09-27T05:02:31.293Z,1.10
2022-09-27T05:05:19.758Z,1.27
2022-09-27T05:07:48.392Z,0.97
2022-09-27T05:10:27.929Z,0.90
2022-09-27T05:12:56.619Z,1.50
2022-09-27T05:15:29.113Z,0.83
2022-09-27T05:18:35.793Z,1.13
2022-09-27T05:21:27.213Z,0.70
2022-09-27T05:23:56.415Z,0.97
2022-09-27T05:26:24.999Z,0.97
2022-09-27T05:28:53.492Z,0.70
2022-09-27T05:31:23.499Z,1.00
2022-09-27T05:33:52.512Z,1.17
2022-09-27T05:36:35.696Z,1.03
2022-09-27T05:39:04.277Z,1.67
2022-09-27T05:41:33.267Z,1.10
2022-09-27T05:44:02.295Z,1.10
2022-09-27T05:46:32.400Z,1.10
2022-09-27T05:49:01.201Z,1.50
2022-09-27T05:51:29.632Z,1.30
2022-09-27T05:53:58.681Z,1.50
2022-09-27T05:56:30.048Z,1.53
2022-09-27T05:59:17.103Z,2.03
2022-09-27T06:02:05.490Z,2.17
2022-09-27T06:05:09.708Z,1.40
2022-09-27T06:07:41.549Z,1.87
2022-09-27T06:10:19.031Z,1.30
2022-09-27T06:12:47.935Z,1.73
2022-09-27T06:15:35.167Z,1.10
2022-09-27T06:18:07.426Z,1.20
2022-09-27T06:20:37.327Z,1.07
2022-09-27T06:23:07.499Z,1.87
2022-09-27T06:25:36.432Z,1.20
2022-09-27T06:28:37.002Z,1.00
2022-09-27T06:31:08.839Z,1.30
2022-09-27T06:33:49.896Z,1.23
2022-09-27T06:36:19.473Z,1.30
2022-09-27T06:38:49.723Z,0.93
2022-09-27T06:41:21.993Z,0.90
2022-09-27T06:44:08.996Z,1.00
2022-09-27T06:46:55.778Z,1.13
2022-09-27T06:49:33.936Z,0.90
2022-09-27T06:52:02.619Z,1.07
2022-09-27T06:54:31.119Z,1.00
2022-09-27T06:57:02.680Z,0.90
2022-09-27T06:59:51.028Z,1.20
2022-09-27T07:02:38.262Z,1.40
2022-09-27T07:05:34.420Z,1.57
2022-09-27T07:08:21.101Z,1.47
2022-09-27T07:10:49.932Z,1.17
2022-09-27T07:13:18.939Z,1.03
2022-09-27T07:15:47.408Z,0.93
2022-09-27T07:18:17.154Z,0.60
2022-09-27T07:20:46.994Z,1.10
2022-09-27T07:23:16.156Z,1.17
2022-09-27T07:25:44.740Z,0.80
2022-09-27T07:28:21.556Z,0.67
2022-09-27T07:30:55.139Z,1.10
2022-09-27T07:33:24.377Z,1.07
2022-09-27T07:35:54.273Z,0.70
2022-09-27T07:38:23.024Z,1.33
2022-09-27T07:40:53.077Z,1.07
2022-09-27T07:43:22.471Z,0.97
2022-09-27T07:45:51.512Z,1.30
2022-09-27T07:48:39.318Z,0.83
2022-09-27T07:51:16.944Z,1.30
2022-09-27T07:53:48.112Z,1.67
2022-09-27T07:56:37.018Z,1.00
2022-09-27T07:59:07.712Z,1.40
2022-09-27T08:01:36.254Z,1.23
2022-09-27T08:04:05.600Z,1.73
2022-09-27T08:06:35.672Z,3.50
2022-09-27T08:09:07.307Z,1.97
2022-09-27T08:11:36.577Z,1.10
2022-09-27T08:14:05.702Z,1.50
2022-09-27T08:16:36.162Z,1.17
2022-09-27T08:19:36.677Z,1.00
2022-09-27T08:22:09.813Z,0.90
2022-09-27T08:24:52.755Z,1.30
2022-09-27T08:27:27.259Z,1.47
2022-09-27T08:30:00.455Z,1.07
2022-09-27T08:32:30.768Z,1.43
2022-09-27T08:34:59.612Z,0.90
2022-09-27T08:37:29.871Z,1.23
2022-09-27T08:39:59.863Z,1.63
2022-09-27T08:42:39.559Z,1.50
2022-09-27T08:45:13.252Z,1.30
2022-09-27T08:47:47.377Z,1.10
2022-09-27T08:50:26.993Z,1.87
2022-09-27T08:53:01.153Z,1.17
2022-09-27T08:55:37.354Z,0.90
2022-09-27T08:58:17.195Z,1.37
2022-09-27T09:00:45.871Z,2.07
2022-09-27T09:03:20.449Z,3.27
2022-09-27T09:06:00.971Z,1.30
2022-09-27T09:08:42.369Z,1.13
2022-09-27T09:11:40.030Z,1.07
2022-09-27T09:14:33.375Z,0.83
2022-09-27T09:17:15.290Z,0.90
2022-09-27T09:20:17.414Z,1.00
2022-09-27T09:23:10.857Z,2.50
2022-09-27T09:25:49.319Z,1.10
2022-09-27T09:28:30.345Z,0.83
2022-09-27T09:31:09.109Z,0.60
2022-09-27T09:33:41.574Z,0.53
2022-09-27T09:36:17.749Z,0.63
2022-09-27T09:38:50.632Z,0.67
2022-09-27T09:41:28.582Z,0.83
2022-09-27T09:44:02.147Z,0.90
2022-09-27T09:46:40.207Z,2.27
2022-09-27T09:49:18.096Z,1.27
2022-09-27T09:51:51.341Z,1.57
2022-09-27T09:54:27.163Z,1.20
2022-09-27T09:57:04.873Z,1.90
2022-09-27T09:59:41.247Z,2.17
2022-09-27T10:02:22.682Z,1.53
2022-09-27T10:04:51.499Z,0.73
2022-09-27T10:07:24.439Z,0.60
2022-09-27T10:09:55.836Z,1.03
2022-09-27T10:12:49.162Z,0.60
2022-09-27T10:15:20.849Z,3.30
2022-09-27T10:17:52.124Z,1.50
2022-09-27T10:20:29.638Z,0.90
2022-09-27T10:23:04.768Z,0.80
2022-09-27T10:25:52.258Z,0.63
2022-09-27T10:28:57.687Z,0.87
2022-09-27T10:31:42.804Z,1.10
2022-09-27T10:34:25.144Z,2.70
2022-09-27T10:37:08.113Z,0.90
2022-09-27T10:39:41.329Z,0.90
2022-09-27T10:42:22.015Z,1.90
2022-09-27T10:44:52.161Z,1.30
2022-09-27T10:47:31.317Z,1.03
2022-09-27T10:50:46.060Z,0.97
2022-09-27T10:53:35.386Z,0.60
2022-09-27T10:56:25.567Z,0.97
2022-09-27T10:58:55.075Z,0.67
2022-09-27T11:01:26.777Z,0.73
2022-09-27T11:04:21.987Z,0.60
2022-09-27T11:06:50.637Z,0.40
2022-09-27T11:09:26.237Z,0.63
2022-09-27T11:12:11.185Z,1.00
2022-09-27T11:14:40.896Z,0.67
2022-09-27T11:17:16.889Z,0.30
2022-09-27T11:20:22.827Z,0.70
2022-09-27T11:23:17.445Z,0.87
2022-09-27T11:25:58.903Z,1.40
2022-09-27T11:28:37.354Z,1.53
2022-09-27T11:31:19.995Z,1.00
2022-09-27T11:34:26.974Z,0.70
2022-09-27T11:37:11.715Z,0.40
2022-09-27T11:39:54.244Z,0.80
2022-09-27T11:42:42.609Z,0.60
2022-09-27T11:45:45.343Z,0.97
2022-09-27T11:48:28.448Z,0.30
2022-09-27T11:51:12.704Z,0.57
2022-09-27T11:53:58.269Z,0.60
2022-09-27T11:56:39.242Z,0.73
2022-09-27T11:59:25.029Z,0.60
2022-09-27T12:02:02.219Z,0.83
2022-09-27T12:04:58.308Z,0.40
2022-09-27T12:07:36.993Z,0.60
2022-09-27T12:10:11.715Z,0.60
2022-09-27T12:12:44.836Z,0.57
2022-09-27T12:15:18.346Z,0.50
2022-09-27T12:17:49.721Z,0.60
2022-09-27T12:20:22.677Z,0.60
2022-09-27T12:23:00.063Z,0.60
2022-09-27T12:25:43.768Z,0.90
2022-09-27T12:28:28.309Z,0.43
2022-09-27T12:31:27.369Z,0.80
2022-09-27T12:34:03.704Z,0.90
2022-09-27T12:36:38.749Z,0.70
2022-09-27T12:39:16.722Z,0.40
2022-09-27T12:41:56.400Z,0.67
2022-09-27T12:44:39.398Z,0.70
2022-09-27T12:47:16.855Z,1.37
2022-09-27T12:50:00.325Z,0.67
2022-09-27T12:52:35.289Z,1.30
2022-09-27T12:55:29.286Z,0.97
2022-09-27T12:58:18.733Z,1.50
2022-09-27T13:00:55.994Z,1.60
2022-09-27T13:03:43.360Z,1.47
2022-09-27T13:06:40.337Z,0.83
2022-09-27T13:09:30.881Z,1.17
2022-09-27T13:12:10.837Z,1.30
2022-09-27T13:14:45.478Z,1.23
2022-09-27T13:17:47.487Z,1.20
2022-09-27T13:20:46.497Z,0.60
2022-09-27T13:23:52.083Z,0.70
2022-09-27T13:26:25.529Z,1.17
2022-09-27T13:29:03.500Z,0.77
2022-09-27T13:32:03.200Z,1.10
2022-09-27T13:35:13.498Z,0.80
2022-09-27T13:37:51.602Z,0.90
2022-09-27T13:40:31.402Z,1.30
2022-09-27T13:43:47.922Z,1.00
2022-09-27T13:46:54.190Z,0.80
2022-09-27T13:49:31.637Z,1.43
2022-09-27T13:52:23.248Z,1.13
2022-09-27T13:55:41.407Z,0.87
2022-09-27T13:58:28.266Z,0.53
2022-09-27T14:01:01.288Z,0.50
2022-09-27T14:03:33.096Z,0.93
2022-09-27T14:06:08.563Z,1.10
2022-09-27T14:08:41.015Z,0.93
2022-09-27T14:11:16.516Z,0.90
2022-09-27T14:13:48.412Z,0.77
2022-09-27T14:16:22.032Z,0.67
2022-09-27T14:18:57.588Z,0.60
2022-09-27T14:21:39.019Z,0.73
2022-09-27T14:24:32.407Z,1.30
2022-09-27T14:27:17.352Z,1.00
2022-09-27T14:29:50.311Z,1.10
2022-09-27T14:32:25.955Z,2.30
2022-09-27T14:35:29.708Z,1.03
2022-09-27T14:37:58.732Z,1.30
2022-09-27T14:40:28.719Z,1.90
2022-09-27T14:43:01.432Z,4.03
2022-09-27T14:45:36.569Z,2.63
2022-09-27T14:48:20.107Z,1.47
2022-09-27T14:51:04.684Z,3.43
2022-09-27T14:53:37.366Z,1.40
2022-09-27T14:56:07.027Z,0.90
2022-09-27T14:58:47.160Z,0.90
2022-09-27T15:01:17.425Z,0.80
2022-09-27T15:03:48.825Z,1.20
2022-09-27T15:06:18.176Z,1.00
2022-09-27T15:08:49.603Z,1.40
2022-09-27T15:11:19.364Z,1.70
2022-09-27T15:13:52.878Z,1.50
2022-09-27T15:16:23.566Z,1.50
2022-09-27T15:19:03.572Z,1.27
2022-09-27T15:21:34.082Z,1.17
2022-09-27T15:24:03.579Z,0.87
2022-09-27T15:26:38.833Z,0.93
2022-09-27T15:29:20.147Z,0.90
2022-09-27T15:32:00.480Z,1.00
2022-09-27T15:34:29.954Z,1.20
2022-09-27T15:37:03.313Z,1.23
2022-09-27T15:39:34.583Z,1.50
2022-09-27T15:42:09.002Z,1.20
2022-09-27T15:44:49.644Z,1.90
2022-09-27T15:47:50.964Z,1.40
2022-09-27T15:50:41.120Z,2.10
2022-09-27T15:53:10.759Z,1.43
2022-09-27T15:55:43.298Z,1.80
2022-09-27T15:58:16.904Z,1.40
2022-09-27T16:00:54.394Z,1.83
2022-09-27T16:03:22.860Z,2.20
2022-09-27T16:05:51.477Z,1.30
2022-09-27T16:08:19.912Z,1.83
2022-09-27T16:10:51.754Z,3.30
2022-09-27T16:13:20.207Z,3.43
2022-09-27T16:15:49.323Z,2.10
2022-09-27T16:18:19.436Z,1.97
2022-09-27T16:20:47.907Z,2.77
2022-09-27T16:23:16.314Z,2.40
2022-09-27T16:25:44.724Z,1.80
2022-09-27T16:28:13.179Z,2.67
2022-09-27T16:30:41.573Z,3.17
2022-09-27T16:33:09.984Z,3.50
2022-09-27T16:35:42.082Z,4.43
2022-09-27T16:38:10.812Z,4.00
2022-09-27T16:40:39.492Z,3.60
2022-09-27T16:43:08.171Z,4.90
2022-09-27T16:45:36.984Z,4.93
2022-09-27T16:48:05.497Z,7.60
2022-09-27T16:50:51.181Z,1.87
2022-09-27T16:53:20.955Z,2.57
2022-09-27T16:55:49.363Z,3.33
2022-09-27T16:58:17.811Z,2.73
2022-09-27T17:00:46.234Z,1.50
2022-09-27T17:03:14.632Z,1.30
2022-09-27T17:05:42.998Z,1.80
2022-09-27T17:08:11.465Z,2.30
2022-09-27T17:10:45.439Z,2.17
2022-09-27T17:13:13.931Z,2.97
2022-09-27T17:15:42.835Z,3.23
2022-09-27T17:18:12.909Z,3.03
2022-09-27T17:20:41.466Z,2.80
2022-09-27T17:23:09.829Z,2.40
2022-09-27T17:25:38.556Z,1.90
2022-09-27T17:28:08.378Z,3.37
2022-09-27T17:30:36.798Z,3.10
2022-09-27T17:33:05.199Z,3.07
2022-09-27T17:35:33.618Z,4.13
2022-09-27T17:38:02.081Z,3.53
2022-09-27T17:40:30.572Z,3.07
2022-09-27T17:42:59.203Z,2.90
2022-09-27T17:45:28.968Z,3.03
2022-09-27T17:48:14.690Z,3.40
2022-09-27T17:50:47.780Z,2.87
2022-09-27T17:53:16.748Z,2.17
2022-09-27T17:55:45.385Z,2.33
2022-09-27T17:58:13.733Z,2.33
2022-09-27T18:00:43.487Z,2.10
2022-09-27T18:03:11.910Z,1.63
2022-09-27T18:05:40.313Z,2.23
2022-09-27T18:08:08.900Z,3.77
2022-09-27T18:10:37.467Z,2.70
2022-09-27T18:13:07.081Z,3.20
2022-09-27T18:15:37.224Z,2.43
2022-09-27T18:18:06.986Z,2.70
2022-09-27T18:20:35.670Z,3.03
2022-09-27T18:23:04.084Z,4.10
2022-09-27T18:25:32.971Z,3.47
2022-09-27T18:28:01.628Z,3.60
2022-09-27T18:30:30.028Z,5.63
2022-09-27T18:32:58.399Z,4.43
2022-09-27T18:35:28.932Z,5.47
2022-09-27T18:37:57.355Z,5.93
2022-09-27T18:40:44.871Z,6.00
2022-09-27T18:43:14.128Z,3.37
2022-09-27T18:45:42.530Z,3.00
2022-09-27T18:48:10.907Z,2.83
2022-09-27T18:50:40.688Z,2.87
2022-09-27T18:53:09.349Z,3.10
2022-09-27T18:55:38.331Z,3.60
2022-09-27T18:58:07.201Z,3.47
2022-09-27T19:00:35.641Z,3.60
2022-09-27T19:03:04.473Z,3.07
2022-09-27T19:05:32.908Z,3.43
2022-09-27T19:08:02.846Z,3.73
2022-09-27T19:10:31.240Z,4.63
2022-09-27T19:13:00.997Z,4.23
2022-09-27T19:15:29.440Z,4.70
2022-09-27T19:17:57.953Z,3.93
2022-09-27T19:20:26.364Z,4.60
2022-09-27T19:22:54.756Z,6.03
2022-09-27T19:25:24.596Z,7.47
2022-09-27T19:27:53.340Z,10.50
2022-09-27T19:30:21.800Z,6.50
2022-09-27T19:32:52.388Z,5.50
2022-09-27T19:35:21.082Z,4.87
2022-09-27T19:37:49.546Z,4.90
2022-09-27T19:40:18.222Z,4.63
2022-09-27T19:42:52.174Z,5.33
2022-09-27T19:45:20.620Z,5.27
2022-09-27T19:47:48.987Z,4.73
2022-09-27T19:50:17.830Z,5.13
2022-09-27T19:52:46.803Z,5.83
2022-09-27T19:55:15.535Z,5.37
2022-09-27T19:57:44.407Z,5.40
2022-09-27T20:00:14.778Z,5.47
2022-09-27T20:02:43.579Z,5.13
2022-09-27T20:05:12.301Z,5.17
2022-09-27T20:07:40.764Z,5.80
2022-09-27T20:10:10.393Z,5.63
2022-09-27T20:12:38.843Z,6.20
2022-09-27T20:15:08.084Z,5.67
2022-09-27T20:17:37.829Z,7.73
2022-09-27T20:20:07.651Z,6.43
2022-09-27T20:22:36.141Z,5.87
2022-09-27T20:25:05.550Z,5.80
2022-09-27T20:27:34.010Z,6.17
2022-09-27T20:30:02.625Z,7.43
2022-09-27T20:32:31.968Z,7.40
2022-09-27T20:35:01.891Z,6.57
2022-09-27T20:37:32.003Z,7.83
2022-09-27T20:40:00.418Z,7.63
2022-09-27T20:42:28.861Z,8.17
2022-09-27T20:44:57.303Z,8.07
2022-09-27T20:47:25.715Z,7.00
2022-09-27T20:49:54.057Z,6.70
2022-09-27T20:52:23.820Z,6.70
2022-09-27T20:54:52.217Z,6.30
2022-09-27T20:57:46.379Z,6.73
2022-09-27T21:00:14.595Z,6.67
2022-09-27T21:02:43.253Z,6.83
2022-09-27T21:05:12.181Z,6.73
2022-09-27T21:07:42.175Z,6.67
2022-09-27T21:10:11.461Z,6.67
2022-09-27T21:12:40.302Z,7.10
2022-09-27T21:15:09.791Z,8.00
2022-09-27T21:17:38.244Z,6.73
2022-09-27T21:20:07.164Z,6.53
2022-09-27T21:22:35.551Z,6.40
2022-09-27T21:25:06.031Z,6.80
2022-09-27T21:27:34.547Z,7.30
2022-09-27T21:30:03.036Z,6.63
2022-09-27T21:32:31.478Z,7.00
2022-09-27T21:34:59.881Z,6.37
2022-09-27T21:37:28.879Z,6.97
2022-09-27T21:39:58.112Z,6.20
2022-09-27T21:42:27.869Z,6.10
2022-09-27T21:44:56.394Z,6.17
2022-09-27T21:47:24.827Z,5.33
2022-09-27T21:49:53.276Z,6.17
2022-09-27T21:52:21.741Z,4.43
2022-09-27T21:54:50.140Z,5.07
2022-09-27T21:57:18.512Z,5.27
2022-09-27T21:59:48.284Z,5.40
2022-09-27T22:02:19.559Z,5.43
2022-09-27T22:04:49.294Z,4.60
2022-09-27T22:07:17.944Z,5.70
2022-09-27T22:09:46.337Z,5.73
2022-09-27T22:12:14.704Z,4.73
2022-09-27T22:14:43.129Z,5.07
2022-09-27T22:17:12.936Z,4.80
2022-09-27T22:19:41.280Z,4.33
2022-09-27T22:22:09.667Z,4.97
2022-09-27T22:24:38.196Z,3.77
2022-09-27T22:27:06.581Z,4.47
2022-09-27T22:29:34.954Z,4.23
2022-09-27T22:32:03.335Z,4.20
2022-09-27T22:34:33.125Z,3.80
2022-09-27T22:37:02.091Z,3.70
2022-09-27T22:39:30.592Z,5.03
2022-09-27T22:41:58.978Z,4.80
2022-09-27T22:44:27.378Z,4.43
2022-09-27T22:46:55.843Z,4.00
2022-09-27T22:49:24.248Z,3.27
2022-09-27T22:51:54.170Z,3.13
2022-09-27T22:54:22.570Z,4.43
2022-09-27T22:56:56.958Z,3.73
2022-09-27T22:59:25.986Z,3.50
2022-09-27T23:01:54.717Z,3.63
2022-09-27T23:04:23.129Z,3.83
2022-09-27T23:06:51.588Z,3.57
2022-09-27T23:09:21.572Z,3.93
2022-09-27T23:11:49.980Z,3.37
2022-09-27T23:14:20.916Z,3.60
2022-09-27T23:16:49.858Z,3.87
2022-09-27T23:19:20.036Z,4.87
2022-09-27T23:21:50.035Z,3.70
2022-09-27T23:24:18.992Z,3.20
2022-09-27T23:27:08.886Z,3.33
2022-09-27T23:29:37.316Z,3.77
2022-09-27T23:32:06.260Z,3.63
2022-09-27T23:34:34.684Z,3.07
2022-09-27T23:37:03.075Z,3.33
2022-09-27T23:39:31.428Z,2.97
2022-09-27T23:42:01.190Z,3.17
2022-09-27T23:44:29.620Z,3.37
2022-09-27T23:47:00.376Z,3.00
2022-09-27T23:49:29.395Z,3.97
2022-09-27T23:51:57.795Z,3.47
2022-09-27T23:54:26.209Z,3.20
2022-09-27T23:56:54.614Z,4.30
2022-09-27T23:59:25.204Z,3.77
